sensor_id;sensor_type;location;lat;lon;timestamp;P1;durP1;ratioP1;P2;durP2;ratioP2
417;SDS011;49;48.530;9.200;2024-03-23T00:53:44;14.00;;;8.80;;
417;SDS011;49;48.530;9.200;2024-03-23T00:56:10;11.60;;;8.20;;
417;SDS011;49;48.530;9.200;2024-03-23T00:58:39;15.53;;;8.63;;
417;SDS011;49;48.530;9.200;2024-03-23T01:01:05;10.47;;;7.17;;
417;SDS011;49;48.530;9.200;2024-03-23T01:03:31;16.37;;;7.23;;
417;SDS011;49;48.530;9.200;2024-03-23T01:05:58;10.20;;;7.80;;
417;SDS011;49;48.530;9.200;2024-03-23T01:08:25;13.10;;;8.50;;
417;SDS011;49;48.530;9.200;2024-03-23T01:10:55;10.73;;;7.50;;
417;SDS011;49;48.530;9.200;2024-03-23T01:13:22;8.30;;;6.10;;
417;SDS011;49;48.530;9.200;2024-03-23T01:15:50;9.67;;;7.40;;
417;SDS011;49;48.530;9.200;2024-03-23T01:18:18;10.20;;;7.43;;
417;SDS011;49;48.530;9.200;2024-03-23T01:20:44;10.60;;;8.00;;
417;SDS011;49;48.530;9.200;2024-03-23T01:23:11;14.57;;;6.90;;
417;SDS011;49;48.530;9.200;2024-03-23T01:25:37;15.03;;;8.67;;
417;SDS011;49;48.530;9.200;2024-03-23T01:28:04;14.80;;;8.60;;
417;SDS011;49;48.530;9.200;2024-03-23T01:30:31;10.50;;;7.17;;
417;SDS011;49;48.530;9.200;2024-03-23T01:32:59;10.47;;;6.83;;
417;SDS011;49;48.530;9.200;2024-03-23T01:35:25;13.27;;;7.40;;
417;SDS011;49;48.530;9.200;2024-03-23T01:37:52;15.83;;;8.30;;
417;SDS011;49;48.530;9.200;2024-03-23T01:40:18;10.90;;;8.00;;
417;SDS011;49;48.530;9.200;2024-03-23T01:42:54;11.50;;;7.63;;
417;SDS011;49;48.530;9.200;2024-03-23T01:45:21;14.03;;;7.10;;
417;SDS011;49;48.530;9.200;2024-03-23T01:47:48;9.50;;;6.80;;
417;SDS011;49;48.530;9.200;2024-03-23T01:50:16;12.27;;;6.63;;
417;SDS011;49;48.530;9.200;2024-03-23T01:52:43;9.83;;;7.37;;
417;SDS011;49;48.530;9.200;2024-03-23T01:55:09;8.70;;;6.83;;
417;SDS011;49;48.530;9.200;2024-03-23T01:57:37;19.20;;;7.70;;
417;SDS011;49;48.530;9.200;2024-03-23T02:00:03;13.37;;;7.33;;
417;SDS011;49;48.530;9.200;2024-03-23T02:02:32;10.00;;;7.20;;
417;SDS011;49;48.530;9.200;2024-03-23T02:04:57;7.40;;;5.87;;
417;SDS011;49;48.530;9.200;2024-03-23T02:07:26;11.17;;;7.00;;
417;SDS011;49;48.530;9.200;2024-03-23T02:09:52;15.80;;;8.23;;
417;SDS011;49;48.530;9.200;2024-03-23T02:12:20;8.90;;;5.40;;
417;SDS011;49;48.530;9.200;2024-03-23T02:14:46;13.23;;;6.70;;
417;SDS011;49;48.530;9.200;2024-03-23T02:17:13;9.90;;;6.50;;
417;SDS011;49;48.530;9.200;2024-03-23T02:19:39;8.57;;;5.70;;
417;SDS011;49;48.530;9.200;2024-03-23T02:22:06;9.40;;;6.20;;
417;SDS011;49;48.530;9.200;2024-03-23T02:24:34;10.87;;;5.70;;
417;SDS011;49;48.530;9.200;2024-03-23T02:27:01;8.67;;;6.03;;
417;SDS011;49;48.530;9.200;2024-03-23T02:29:28;10.40;;;6.50;;
417;SDS011;49;48.530;9.200;2024-03-23T02:31:55;8.37;;;5.87;;
417;SDS011;49;48.530;9.200;2024-03-23T02:34:21;7.27;;;5.90;;
417;SDS011;49;48.530;9.200;2024-03-23T02:36:48;8.00;;;5.37;;
417;SDS011;49;48.530;9.200;2024-03-23T02:39:14;11.10;;;5.90;;
417;SDS011;49;48.530;9.200;2024-03-23T02:41:42;9.30;;;6.07;;
417;SDS011;49;48.530;9.200;2024-03-23T02:44:08;8.60;;;6.00;;
417;SDS011;49;48.530;9.200;2024-03-23T02:46:36;8.60;;;6.70;;
417;SDS011;49;48.530;9.200;2024-03-23T02:49:03;8.63;;;5.60;;
417;SDS011;49;48.530;9.200;2024-03-23T02:51:30;9.07;;;6.33;;
417;SDS011;49;48.530;9.200;2024-03-23T02:53:56;8.47;;;5.80;;
417;SDS011;49;48.530;9.200;2024-03-23T02:56:23;11.97;;;6.20;;
417;SDS011;49;48.530;9.200;2024-03-23T02:58:50;11.43;;;6.90;;
417;SDS011;49;48.530;9.200;2024-03-23T03:01:17;10.90;;;5.90;;
417;SDS011;49;48.530;9.200;2024-03-23T03:03:43;15.63;;;6.20;;
417;SDS011;49;48.530;9.200;2024-03-23T03:06:10;8.23;;;6.30;;
417;SDS011;49;48.530;9.200;2024-03-23T03:08:36;8.53;;;6.27;;
417;SDS011;49;48.530;9.200;2024-03-23T03:11:03;7.90;;;5.50;;
417;SDS011;49;48.530;9.200;2024-03-23T03:13:29;7.53;;;5.43;;
417;SDS011;49;48.530;9.200;2024-03-23T03:15:58;9.27;;;6.00;;
417;SDS011;49;48.530;9.200;2024-03-23T03:18:24;6.73;;;4.90;;
417;SDS011;49;48.530;9.200;2024-03-23T03:20:53;8.67;;;5.50;;
417;SDS011;49;48.530;9.200;2024-03-23T03:23:20;9.07;;;5.77;;
417;SDS011;49;48.530;9.200;2024-03-23T03:25:47;10.53;;;5.53;;
417;SDS011;49;48.530;9.200;2024-03-23T03:28:13;9.30;;;4.10;;
417;SDS011;49;48.530;9.200;2024-03-23T03:30:40;8.63;;;4.90;;
417;SDS011;49;48.530;9.200;2024-03-23T03:33:07;9.90;;;4.67;;
417;SDS011;49;48.530;9.200;2024-03-23T03:35:34;10.93;;;4.40;;
417;SDS011;49;48.530;9.200;2024-03-23T03:38:00;9.60;;;5.80;;
417;SDS011;49;48.530;9.200;2024-03-23T03:40:27;8.13;;;5.80;;
417;SDS011;49;48.530;9.200;2024-03-23T03:42:54;8.07;;;4.90;;
417;SDS011;49;48.530;9.200;2024-03-23T03:45:21;6.27;;;4.60;;
417;SDS011;49;48.530;9.200;2024-03-23T03:47:47;8.13;;;4.90;;
417;SDS011;49;48.530;9.200;2024-03-23T03:50:16;5.43;;;4.30;;
417;SDS011;49;48.530;9.200;2024-03-23T03:52:42;11.77;;;4.70;;
417;SDS011;49;48.530;9.200;2024-03-23T03:55:12;6.43;;;4.20;;
417;SDS011;49;48.530;9.200;2024-03-23T03:57:39;10.43;;;5.40;;
417;SDS011;49;48.530;9.200;2024-03-23T04:00:06;7.03;;;4.47;;
417;SDS011;49;48.530;9.200;2024-03-23T04:02:36;8.27;;;4.50;;
417;SDS011;49;48.530;9.200;2024-03-23T04:05:04;9.43;;;4.53;;
417;SDS011;49;48.530;9.200;2024-03-23T04:07:34;9.47;;;4.40;;
417;SDS011;49;48.530;9.200;2024-03-23T04:10:02;5.60;;;3.87;;
417;SDS011;49;48.530;9.200;2024-03-23T04:12:32;5.90;;;4.50;;
417;SDS011;49;48.530;9.200;2024-03-23T04:14:59;8.03;;;4.10;;
417;SDS011;49;48.530;9.200;2024-03-23T04:17:25;4.90;;;3.93;;
417;SDS011;49;48.530;9.200;2024-03-23T04:19:56;9.10;;;4.30;;
417;SDS011;49;48.530;9.200;2024-03-23T04:22:23;5.87;;;3.70;;
417;SDS011;49;48.530;9.200;2024-03-23T04:24:55;8.17;;;4.03;;
417;SDS011;49;48.530;9.200;2024-03-23T04:27:22;5.10;;;4.13;;
417;SDS011;49;48.530;9.200;2024-03-23T04:29:49;5.20;;;3.83;;
417;SDS011;49;48.530;9.200;2024-03-23T04:32:15;9.43;;;4.50;;
417;SDS011;49;48.530;9.200;2024-03-23T04:34:45;9.10;;;4.17;;
417;SDS011;49;48.530;9.200;2024-03-23T04:37:11;12.70;;;4.00;;
417;SDS011;49;48.530;9.200;2024-03-23T04:39:39;7.47;;;4.80;;
417;SDS011;49;48.530;9.200;2024-03-23T04:42:09;6.60;;;3.50;;
417;SDS011;49;48.530;9.200;2024-03-23T04:44:37;8.47;;;4.83;;
417;SDS011;49;48.530;9.200;2024-03-23T04:47:04;5.53;;;3.83;;
417;SDS011;49;48.530;9.200;2024-03-23T04:49:31;8.13;;;4.00;;
417;SDS011;49;48.530;9.200;2024-03-23T04:52:01;8.10;;;3.90;;
417;SDS011;49;48.530;9.200;2024-03-23T04:54:29;7.27;;;3.97;;
417;SDS011;49;48.530;9.200;2024-03-23T04:56:55;6.23;;;4.00;;
417;SDS011;49;48.530;9.200;2024-03-23T04:59:24;14.67;;;3.50;;
417;SDS011;49;48.530;9.200;2024-03-23T05:01:50;6.83;;;4.33;;
417;SDS011;49;48.530;9.200;2024-03-23T05:04:17;4.93;;;3.70;;
417;SDS011;49;48.530;9.200;2024-03-23T05:06:43;7.63;;;3.90;;
417;SDS011;49;48.530;9.200;2024-03-23T05:09:09;27.47;;;4.60;;
417;SDS011;49;48.530;9.200;2024-03-23T05:11:37;11.50;;;5.00;;
417;SDS011;49;48.530;9.200;2024-03-23T05:14:04;10.33;;;4.50;;
417;SDS011;49;48.530;9.200;2024-03-23T05:16:31;5.90;;;3.97;;
417;SDS011;49;48.530;9.200;2024-03-23T05:18:58;11.10;;;4.40;;
417;SDS011;49;48.530;9.200;2024-03-23T05:21:26;9.23;;;4.60;;
417;SDS011;49;48.530;9.200;2024-03-23T05:23:53;9.77;;;4.67;;
417;SDS011;49;48.530;9.200;2024-03-23T05:26:22;8.67;;;5.10;;
417;SDS011;49;48.530;9.200;2024-03-23T05:28:49;5.90;;;4.13;;
417;SDS011;49;48.530;9.200;2024-03-23T05:31:22;9.83;;;4.83;;
417;SDS011;49;48.530;9.200;2024-03-23T05:33:52;9.20;;;4.77;;
417;SDS011;49;48.530;9.200;2024-03-23T05:36:19;9.80;;;4.60;;
417;SDS011;49;48.530;9.200;2024-03-23T05:38:49;13.97;;;4.70;;
417;SDS011;49;48.530;9.200;2024-03-23T05:41:15;9.10;;;4.47;;
417;SDS011;49;48.530;9.200;2024-03-23T05:43:42;7.60;;;5.50;;
417;SDS011;49;48.530;9.200;2024-03-23T05:49:16;9.63;;;6.30;;
417;SDS011;49;48.530;9.200;2024-03-23T05:54:22;14.50;;;7.07;;
417;SDS011;49;48.530;9.200;2024-03-23T06:18:34;15.33;;;5.97;;
417;SDS011;49;48.530;9.200;2024-03-23T06:21:14;10.33;;;6.80;;
417;SDS011;49;48.530;9.200;2024-03-23T06:23:41;11.30;;;6.60;;
417;SDS011;49;48.530;9.200;2024-03-23T06:26:11;8.73;;;6.27;;
417;SDS011;49;48.530;9.200;2024-03-23T06:31:53;9.23;;;6.00;;
417;SDS011;49;48.530;9.200;2024-03-23T06:34:25;9.40;;;5.90;;
417;SDS011;49;48.530;9.200;2024-03-23T06:37:03;6.80;;;4.60;;
417;SDS011;49;48.530;9.200;2024-03-23T06:39:40;7.77;;;5.30;;
417;SDS011;49;48.530;9.200;2024-03-23T06:42:22;7.10;;;4.60;;
417;SDS011;49;48.530;9.200;2024-03-23T06:44:56;7.47;;;4.90;;
417;SDS011;49;48.530;9.200;2024-03-23T06:47:25;4.27;;;3.70;;
417;SDS011;49;48.530;9.200;2024-03-23T06:50:02;4.87;;;3.73;;
417;SDS011;49;48.530;9.200;2024-03-23T06:52:37;4.17;;;3.43;;
417;SDS011;49;48.530;9.200;2024-03-23T06:55:49;4.07;;;3.27;;
417;SDS011;49;48.530;9.200;2024-03-23T06:58:36;3.70;;;2.90;;
417;SDS011;49;48.530;9.200;2024-03-23T07:01:29;3.53;;;2.93;;
417;SDS011;49;48.530;9.200;2024-03-23T07:04:18;2.90;;;2.53;;
417;SDS011;49;48.530;9.200;2024-03-23T07:06:50;3.97;;;2.50;;
417;SDS011;49;48.530;9.200;2024-03-23T07:09:25;2.70;;;2.50;;
417;SDS011;49;48.530;9.200;2024-03-23T07:11:53;3.40;;;2.83;;
417;SDS011;49;48.530;9.200;2024-03-23T07:14:21;3.23;;;2.70;;
417;SDS011;49;48.530;9.200;2024-03-23T07:16:48;6.03;;;2.40;;
417;SDS011;49;48.530;9.200;2024-03-23T07:19:15;2.83;;;2.37;;
417;SDS011;49;48.530;9.200;2024-03-23T07:21:42;3.10;;;2.60;;
417;SDS011;49;48.530;9.200;2024-03-23T07:24:09;3.10;;;2.50;;
417;SDS011;49;48.530;9.200;2024-03-23T07:26:37;3.00;;;2.60;;
417;SDS011;49;48.530;9.200;2024-03-23T07:29:03;3.30;;;2.60;;
417;SDS011;49;48.530;9.200;2024-03-23T07:31:30;4.00;;;3.23;;
417;SDS011;49;48.530;9.200;2024-03-23T07:33:56;3.57;;;2.90;;
417;SDS011;49;48.530;9.200;2024-03-23T07:36:23;5.37;;;2.50;;
417;SDS011;49;48.530;9.200;2024-03-23T07:38:49;6.23;;;2.30;;
417;SDS011;49;48.530;9.200;2024-03-23T07:41:18;2.40;;;2.00;;
417;SDS011;49;48.530;9.200;2024-03-23T07:43:45;3.47;;;2.80;;
417;SDS011;49;48.530;9.200;2024-03-23T07:46:14;2.53;;;2.30;;
417;SDS011;49;48.530;9.200;2024-03-23T07:48:40;3.03;;;2.30;;
417;SDS011;49;48.530;9.200;2024-03-23T07:51:10;3.13;;;2.37;;
417;SDS011;49;48.530;9.200;2024-03-23T07:53:36;3.50;;;2.50;;
417;SDS011;49;48.530;9.200;2024-03-23T07:56:05;3.33;;;2.47;;
417;SDS011;49;48.530;9.200;2024-03-23T07:58:37;3.10;;;2.60;;
417;SDS011;49;48.530;9.200;2024-03-23T08:01:04;2.90;;;2.40;;
417;SDS011;49;48.530;9.200;2024-03-23T08:03:33;2.57;;;2.00;;
417;SDS011;49;48.530;9.200;2024-03-23T08:06:06;3.27;;;2.80;;
417;SDS011;49;48.530;9.200;2024-03-23T08:08:32;3.80;;;2.80;;
417;SDS011;49;48.530;9.200;2024-03-23T08:10:59;3.17;;;2.30;;
417;SDS011;49;48.530;9.200;2024-03-23T08:13:25;4.53;;;2.40;;
417;SDS011;49;48.530;9.200;2024-03-23T08:15:57;4.10;;;2.87;;
417;SDS011;49;48.530;9.200;2024-03-23T08:18:23;2.60;;;2.10;;
417;SDS011;49;48.530;9.200;2024-03-23T08:20:57;3.60;;;2.77;;
417;SDS011;49;48.530;9.200;2024-03-23T08:23:23;3.03;;;2.47;;
417;SDS011;49;48.530;9.200;2024-03-23T08:25:51;3.97;;;2.80;;
417;SDS011;49;48.530;9.200;2024-03-23T08:28:17;4.03;;;3.00;;
417;SDS011;49;48.530;9.200;2024-03-23T08:30:44;6.30;;;3.30;;
417;SDS011;49;48.530;9.200;2024-03-23T08:33:12;6.50;;;4.80;;
417;SDS011;49;48.530;9.200;2024-03-23T08:35:39;4.20;;;3.10;;
417;SDS011;49;48.530;9.200;2024-03-23T08:38:05;5.13;;;3.27;;
417;SDS011;49;48.530;9.200;2024-03-23T08:40:32;5.13;;;3.50;;
417;SDS011;49;48.530;9.200;2024-03-23T08:42:58;6.47;;;3.23;;
417;SDS011;49;48.530;9.200;2024-03-23T08:45:25;6.70;;;3.90;;
417;SDS011;49;48.530;9.200;2024-03-23T08:47:51;7.97;;;3.00;;
417;SDS011;49;48.530;9.200;2024-03-23T08:50:20;8.50;;;3.00;;
417;SDS011;49;48.530;9.200;2024-03-23T08:52:46;5.50;;;3.10;;
417;SDS011;49;48.530;9.200;2024-03-23T08:55:14;7.57;;;3.17;;
417;SDS011;49;48.530;9.200;2024-03-23T08:57:40;8.50;;;3.43;;
417;SDS011;49;48.530;9.200;2024-03-23T09:00:08;6.63;;;3.20;;
417;SDS011;49;48.530;9.200;2024-03-23T09:02:36;8.50;;;4.10;;
417;SDS011;49;48.530;9.200;2024-03-23T09:05:03;7.73;;;3.17;;
417;SDS011;49;48.530;9.200;2024-03-23T09:07:31;13.70;;;3.60;;
417;SDS011;49;48.530;9.200;2024-03-23T09:09:59;8.90;;;3.90;;
417;SDS011;49;48.530;9.200;2024-03-23T09:12:24;7.57;;;4.00;;
417;SDS011;49;48.530;9.200;2024-03-23T09:14:51;5.57;;;3.50;;
417;SDS011;49;48.530;9.200;2024-03-23T09:17:18;7.80;;;3.87;;
417;SDS011;49;48.530;9.200;2024-03-23T09:19:45;15.10;;;4.60;;
417;SDS011;49;48.530;9.200;2024-03-23T09:22:11;9.00;;;3.97;;
417;SDS011;49;48.530;9.200;2024-03-23T09:24:39;5.20;;;3.60;;
417;SDS011;49;48.530;9.200;2024-03-23T09:27:05;9.43;;;4.27;;
417;SDS011;49;48.530;9.200;2024-03-23T09:29:32;12.27;;;4.50;;
417;SDS011;49;48.530;9.200;2024-03-23T09:31:58;11.73;;;4.63;;
417;SDS011;49;48.530;9.200;2024-03-23T09:34:25;9.40;;;4.10;;
417;SDS011;49;48.530;9.200;2024-03-23T09:36:51;8.37;;;4.80;;
417;SDS011;49;48.530;9.200;2024-03-23T09:39:18;14.93;;;5.73;;
417;SDS011;49;48.530;9.200;2024-03-23T09:41:46;10.33;;;4.00;;
417;SDS011;49;48.530;9.200;2024-03-23T09:44:13;19.27;;;4.93;;
417;SDS011;49;48.530;9.200;2024-03-23T09:46:39;10.63;;;4.60;;
417;SDS011;49;48.530;9.200;2024-03-23T09:49:06;11.30;;;4.47;;
417;SDS011;49;48.530;9.200;2024-03-23T09:51:35;8.87;;;4.70;;
417;SDS011;49;48.530;9.200;2024-03-23T09:54:02;6.90;;;4.10;;
417;SDS011;49;48.530;9.200;2024-03-23T09:56:37;14.17;;;4.43;;
417;SDS011;49;48.530;9.200;2024-03-23T09:59:06;8.73;;;4.40;;
417;SDS011;49;48.530;9.200;2024-03-23T10:01:32;9.33;;;5.17;;
417;SDS011;49;48.530;9.200;2024-03-23T10:04:02;12.00;;;5.40;;
417;SDS011;49;48.530;9.200;2024-03-23T10:06:31;8.13;;;3.80;;
417;SDS011;49;48.530;9.200;2024-03-23T10:08:59;10.37;;;4.40;;
417;SDS011;49;48.530;9.200;2024-03-23T10:11:44;10.97;;;4.80;;
417;SDS011;49;48.530;9.200;2024-03-23T10:14:29;9.40;;;4.10;;
417;SDS011;49;48.530;9.200;2024-03-23T10:19:55;8.50;;;4.10;;
417;SDS011;49;48.530;9.200;2024-03-23T10:22:22;11.10;;;4.27;;
417;SDS011;49;48.530;9.200;2024-03-23T10:24:50;8.43;;;4.90;;
417;SDS011;49;48.530;9.200;2024-03-23T10:27:16;9.87;;;4.40;;
417;SDS011;49;48.530;9.200;2024-03-23T10:29:47;10.00;;;4.40;;
417;SDS011;49;48.530;9.200;2024-03-23T10:32:14;7.03;;;4.50;;
417;SDS011;49;48.530;9.200;2024-03-23T10:34:42;10.47;;;4.93;;
417;SDS011;49;48.530;9.200;2024-03-23T10:37:08;15.20;;;4.63;;
417;SDS011;49;48.530;9.200;2024-03-23T10:39:36;10.80;;;4.97;;
417;SDS011;49;48.530;9.200;2024-03-23T10:42:04;9.70;;;4.33;;
417;SDS011;49;48.530;9.200;2024-03-23T10:44:32;16.13;;;5.60;;
417;SDS011;49;48.530;9.200;2024-03-23T10:47:00;18.47;;;5.60;;
417;SDS011;49;48.530;9.200;2024-03-23T10:49:29;11.37;;;4.90;;
417;SDS011;49;48.530;9.200;2024-03-23T10:51:57;10.67;;;5.30;;
417;SDS011;49;48.530;9.200;2024-03-23T10:54:27;9.13;;;4.30;;
417;SDS011;49;48.530;9.200;2024-03-23T10:56:56;14.20;;;4.67;;
417;SDS011;49;48.530;9.200;2024-03-23T10:59:28;12.47;;;5.27;;
417;SDS011;49;48.530;9.200;2024-03-23T11:01:56;9.10;;;4.67;;
417;SDS011;49;48.530;9.200;2024-03-23T11:04:32;12.30;;;4.43;;
417;SDS011;49;48.530;9.200;2024-03-23T11:06:59;11.27;;;5.20;;
417;SDS011;49;48.530;9.200;2024-03-23T11:09:39;8.63;;;3.73;;
417;SDS011;49;48.530;9.200;2024-03-23T11:12:17;10.17;;;4.20;;
417;SDS011;49;48.530;9.200;2024-03-23T11:14:57;11.80;;;4.17;;
417;SDS011;49;48.530;9.200;2024-03-23T11:17:26;8.40;;;3.80;;
417;SDS011;49;48.530;9.200;2024-03-23T11:19:56;11.83;;;3.63;;
417;SDS011;49;48.530;9.200;2024-03-23T11:22:38;8.20;;;3.67;;
417;SDS011;49;48.530;9.200;2024-03-23T11:25:16;6.33;;;4.03;;
417;SDS011;49;48.530;9.200;2024-03-23T11:27:43;15.13;;;3.70;;
417;SDS011;49;48.530;9.200;2024-03-23T11:30:13;10.00;;;3.93;;
417;SDS011;49;48.530;9.200;2024-03-23T11:32:40;10.13;;;4.10;;
417;SDS011;49;48.530;9.200;2024-03-23T11:35:10;13.83;;;3.70;;
417;SDS011;49;48.530;9.200;2024-03-23T11:38:00;10.53;;;3.97;;
417;SDS011;49;48.530;9.200;2024-03-23T11:40:28;9.20;;;3.80;;
417;SDS011;49;48.530;9.200;2024-03-23T11:42:56;9.63;;;3.67;;
417;SDS011;49;48.530;9.200;2024-03-23T11:45:33;10.17;;;3.53;;
417;SDS011;49;48.530;9.200;2024-03-23T11:48:06;11.43;;;3.60;;
417;SDS011;49;48.530;9.200;2024-03-23T11:50:57;9.00;;;3.57;;
417;SDS011;49;48.530;9.200;2024-03-23T11:53:24;14.40;;;4.07;;
417;SDS011;49;48.530;9.200;2024-03-23T11:55:53;13.10;;;4.57;;
417;SDS011;49;48.530;9.200;2024-03-23T11:58:21;14.10;;;6.70;;
417;SDS011;49;48.530;9.200;2024-03-23T12:00:50;26.90;;;11.10;;
417;SDS011;49;48.530;9.200;2024-03-23T12:03:17;11.70;;;4.60;;
417;SDS011;49;48.530;9.200;2024-03-23T12:05:49;17.90;;;7.30;;
417;SDS011;49;48.530;9.200;2024-03-23T12:08:18;24.07;;;9.73;;
417;SDS011;49;48.530;9.200;2024-03-23T12:10:47;9.50;;;3.70;;
417;SDS011;49;48.530;9.200;2024-03-23T12:13:15;10.53;;;3.40;;
417;SDS011;49;48.530;9.200;2024-03-23T12:15:43;18.70;;;4.57;;
417;SDS011;49;48.530;9.200;2024-03-23T12:18:15;24.47;;;11.13;;
417;SDS011;49;48.530;9.200;2024-03-23T12:20:45;18.07;;;7.40;;
417;SDS011;49;48.530;9.200;2024-03-23T12:23:12;10.33;;;4.27;;
417;SDS011;49;48.530;9.200;2024-03-23T12:25:41;13.10;;;3.90;;
417;SDS011;49;48.530;9.200;2024-03-23T12:28:07;8.23;;;3.73;;
417;SDS011;49;48.530;9.200;2024-03-23T12:30:34;14.23;;;4.23;;
417;SDS011;49;48.530;9.200;2024-03-23T12:33:01;9.07;;;3.90;;
417;SDS011;49;48.530;9.200;2024-03-23T12:35:28;19.17;;;4.40;;
417;SDS011;49;48.530;9.200;2024-03-23T12:37:54;15.10;;;5.40;;
417;SDS011;49;48.530;9.200;2024-03-23T12:40:23;5.70;;;3.67;;
417;SDS011;49;48.530;9.200;2024-03-23T12:42:49;6.30;;;3.33;;
417;SDS011;49;48.530;9.200;2024-03-23T12:45:17;10.67;;;3.80;;
417;SDS011;49;48.530;9.200;2024-03-23T12:47:43;10.43;;;4.10;;
417;SDS011;49;48.530;9.200;2024-03-23T12:50:10;11.10;;;4.43;;
417;SDS011;49;48.530;9.200;2024-03-23T12:52:36;14.53;;;4.03;;
417;SDS011;49;48.530;9.200;2024-03-23T12:55:05;6.97;;;3.50;;
417;SDS011;49;48.530;9.200;2024-03-23T12:57:33;11.40;;;3.50;;
417;SDS011;49;48.530;9.200;2024-03-23T13:00:01;9.60;;;3.93;;
417;SDS011;49;48.530;9.200;2024-03-23T13:02:28;6.73;;;3.10;;
417;SDS011;49;48.530;9.200;2024-03-23T13:04:55;7.40;;;3.50;;
417;SDS011;49;48.530;9.200;2024-03-23T13:07:22;6.50;;;3.70;;
417;SDS011;49;48.530;9.200;2024-03-23T13:09:52;8.57;;;3.47;;
417;SDS011;49;48.530;9.200;2024-03-23T13:12:18;9.30;;;3.40;;
417;SDS011;49;48.530;9.200;2024-03-23T13:14:46;6.50;;;3.50;;
417;SDS011;49;48.530;9.200;2024-03-23T13:17:13;6.47;;;3.10;;
417;SDS011;49;48.530;9.200;2024-03-23T13:19:40;7.17;;;3.40;;
417;SDS011;49;48.530;9.200;2024-03-23T13:22:06;6.70;;;3.27;;
417;SDS011;49;48.530;9.200;2024-03-23T13:24:36;5.23;;;3.40;;
417;SDS011;49;48.530;9.200;2024-03-23T13:27:02;5.57;;;3.37;;
417;SDS011;49;48.530;9.200;2024-03-23T13:29:29;6.77;;;3.53;;
417;SDS011;49;48.530;9.200;2024-03-23T13:32:00;7.47;;;3.57;;
417;SDS011;49;48.530;9.200;2024-03-23T13:34:26;10.50;;;3.93;;
417;SDS011;49;48.530;9.200;2024-03-23T13:36:54;7.90;;;3.37;;
417;SDS011;49;48.530;9.200;2024-03-23T13:39:23;9.30;;;2.93;;
417;SDS011;49;48.530;9.200;2024-03-23T13:41:49;4.63;;;2.60;;
417;SDS011;49;48.530;9.200;2024-03-23T13:44:16;9.43;;;2.90;;
417;SDS011;49;48.530;9.200;2024-03-23T13:46:42;6.83;;;2.80;;
417;SDS011;49;48.530;9.200;2024-03-23T13:49:25;5.33;;;2.83;;
417;SDS011;49;48.530;9.200;2024-03-23T13:51:52;5.70;;;2.70;;
417;SDS011;49;48.530;9.200;2024-03-23T13:54:19;6.77;;;3.47;;
417;SDS011;49;48.530;9.200;2024-03-23T13:56:46;8.27;;;3.70;;
417;SDS011;49;48.530;9.200;2024-03-23T13:59:15;5.50;;;3.07;;
417;SDS011;49;48.530;9.200;2024-03-23T14:01:41;7.80;;;3.10;;
417;SDS011;49;48.530;9.200;2024-03-23T14:04:08;5.40;;;3.30;;
417;SDS011;49;48.530;9.200;2024-03-23T14:06:36;16.33;;;3.90;;
417;SDS011;49;48.530;9.200;2024-03-23T14:09:03;10.80;;;4.80;;
417;SDS011;49;48.530;9.200;2024-03-23T14:11:29;9.83;;;3.47;;
417;SDS011;49;48.530;9.200;2024-03-23T14:13:56;5.43;;;2.53;;
417;SDS011;49;48.530;9.200;2024-03-23T14:16:23;4.63;;;2.80;;
417;SDS011;49;48.530;9.200;2024-03-23T14:18:50;5.93;;;2.80;;
417;SDS011;49;48.530;9.200;2024-03-23T14:21:17;7.77;;;3.17;;
417;SDS011;49;48.530;9.200;2024-03-23T14:23:45;8.03;;;3.20;;
417;SDS011;49;48.530;9.200;2024-03-23T14:26:11;4.30;;;2.77;;
417;SDS011;49;48.530;9.200;2024-03-23T14:28:38;7.17;;;3.17;;
417;SDS011;49;48.530;9.200;2024-03-23T14:31:04;12.73;;;4.60;;
417;SDS011;49;48.530;9.200;2024-03-23T14:33:35;7.30;;;3.60;;
417;SDS011;49;48.530;9.200;2024-03-23T14:36:02;5.73;;;3.00;;
417;SDS011;49;48.530;9.200;2024-03-23T14:38:30;9.77;;;3.17;;
417;SDS011;49;48.530;9.200;2024-03-23T14:40:59;3.40;;;2.60;;
417;SDS011;49;48.530;9.200;2024-03-23T14:43:28;6.33;;;3.00;;
417;SDS011;49;48.530;9.200;2024-03-23T14:46:07;5.37;;;2.97;;
417;SDS011;49;48.530;9.200;2024-03-23T14:48:42;6.60;;;3.00;;
417;SDS011;49;48.530;9.200;2024-03-23T14:51:09;4.80;;;2.80;;
417;SDS011;49;48.530;9.200;2024-03-23T14:53:36;4.33;;;2.70;;
417;SDS011;49;48.530;9.200;2024-03-23T14:56:06;4.30;;;2.90;;
417;SDS011;49;48.530;9.200;2024-03-23T14:58:35;7.43;;;3.30;;
417;SDS011;49;48.530;9.200;2024-03-23T15:01:01;9.73;;;3.40;;
417;SDS011;49;48.530;9.200;2024-03-23T15:03:29;7.20;;;3.50;;
417;SDS011;49;48.530;9.200;2024-03-23T15:05:55;5.07;;;2.63;;
417;SDS011;49;48.530;9.200;2024-03-23T15:08:23;4.50;;;2.50;;
417;SDS011;49;48.530;9.200;2024-03-23T15:10:49;9.83;;;2.90;;
417;SDS011;49;48.530;9.200;2024-03-23T15:13:19;3.97;;;2.90;;
417;SDS011;49;48.530;9.200;2024-03-23T15:15:47;4.80;;;3.00;;
417;SDS011;49;48.530;9.200;2024-03-23T15:18:16;6.50;;;3.07;;
417;SDS011;49;48.530;9.200;2024-03-23T15:20:53;6.63;;;2.73;;
417;SDS011;49;48.530;9.200;2024-03-23T15:23:20;10.67;;;3.27;;
417;SDS011;49;48.530;9.200;2024-03-23T15:25:53;8.30;;;3.37;;
417;SDS011;49;48.530;9.200;2024-03-23T15:28:22;5.50;;;2.93;;
417;SDS011;49;48.530;9.200;2024-03-23T15:30:49;7.73;;;2.90;;
417;SDS011;49;48.530;9.200;2024-03-23T15:33:16;4.87;;;2.97;;
417;SDS011;49;48.530;9.200;2024-03-23T15:35:43;12.20;;;4.27;;
417;SDS011;49;48.530;9.200;2024-03-23T15:38:10;6.17;;;2.70;;
417;SDS011;49;48.530;9.200;2024-03-23T15:40:36;12.70;;;3.00;;
417;SDS011;49;48.530;9.200;2024-03-23T15:43:03;6.67;;;3.07;;
417;SDS011;49;48.530;9.200;2024-03-23T15:45:30;10.40;;;3.60;;
417;SDS011;49;48.530;9.200;2024-03-23T15:48:00;6.40;;;3.83;;
417;SDS011;49;48.530;9.200;2024-03-23T15:50:26;7.37;;;3.33;;
417;SDS011;49;48.530;9.200;2024-03-23T15:52:53;9.20;;;4.07;;
417;SDS011;49;48.530;9.200;2024-03-23T15:55:21;4.60;;;2.90;;
417;SDS011;49;48.530;9.200;2024-03-23T15:57:48;6.23;;;2.93;;
417;SDS011;49;48.530;9.200;2024-03-23T16:00:15;8.30;;;3.20;;
417;SDS011;49;48.530;9.200;2024-03-23T16:02:44;7.77;;;2.97;;
417;SDS011;49;48.530;9.200;2024-03-23T16:05:11;6.97;;;2.90;;
417;SDS011;49;48.530;9.200;2024-03-23T16:07:38;5.67;;;2.93;;
417;SDS011;49;48.530;9.200;2024-03-23T16:10:05;11.47;;;3.13;;
417;SDS011;49;48.530;9.200;2024-03-23T16:12:34;5.67;;;3.20;;
417;SDS011;49;48.530;9.200;2024-03-23T16:15:00;4.67;;;3.10;;
417;SDS011;49;48.530;9.200;2024-03-23T16:17:27;6.77;;;3.40;;
417;SDS011;49;48.530;9.200;2024-03-23T16:19:55;7.47;;;3.47;;
417;SDS011;49;48.530;9.200;2024-03-23T16:22:23;6.43;;;3.57;;
417;SDS011;49;48.530;9.200;2024-03-23T16:24:49;10.63;;;5.10;;
417;SDS011;49;48.530;9.200;2024-03-23T16:27:18;5.90;;;3.20;;
417;SDS011;49;48.530;9.200;2024-03-23T16:29:51;4.70;;;2.70;;
417;SDS011;49;48.530;9.200;2024-03-23T16:32:52;14.43;;;6.30;;
417;SDS011;49;48.530;9.200;2024-03-23T16:35:20;5.67;;;2.90;;
417;SDS011;49;48.530;9.200;2024-03-23T16:37:47;6.60;;;3.10;;
417;SDS011;49;48.530;9.200;2024-03-23T16:40:13;10.00;;;3.00;;
417;SDS011;49;48.530;9.200;2024-03-23T16:42:41;4.57;;;2.80;;
417;SDS011;49;48.530;9.200;2024-03-23T16:45:07;9.63;;;2.70;;
417;SDS011;49;48.530;9.200;2024-03-23T16:47:34;6.73;;;2.90;;
417;SDS011;49;48.530;9.200;2024-03-23T16:50:00;11.90;;;3.93;;
417;SDS011;49;48.530;9.200;2024-03-23T16:52:30;5.33;;;2.80;;
417;SDS011;49;48.530;9.200;2024-03-23T16:54:56;6.77;;;3.03;;
417;SDS011;49;48.530;9.200;2024-03-23T16:57:23;7.00;;;2.87;;
417;SDS011;49;48.530;9.200;2024-03-23T16:59:49;4.33;;;2.57;;
417;SDS011;49;48.530;9.200;2024-03-23T17:02:17;4.73;;;2.50;;
417;SDS011;49;48.530;9.200;2024-03-23T17:04:43;5.77;;;4.07;;
417;SDS011;49;48.530;9.200;2024-03-23T17:07:10;3.50;;;2.60;;
417;SDS011;49;48.530;9.200;2024-03-23T17:09:46;3.93;;;2.90;;
417;SDS011;49;48.530;9.200;2024-03-23T17:12:15;2.90;;;2.40;;
417;SDS011;49;48.530;9.200;2024-03-23T17:14:41;5.97;;;3.10;;
417;SDS011;49;48.530;9.200;2024-03-23T17:17:22;3.87;;;2.73;;
417;SDS011;49;48.530;9.200;2024-03-23T17:19:49;5.77;;;2.30;;
417;SDS011;49;48.530;9.200;2024-03-23T17:22:23;6.03;;;3.00;;
417;SDS011;49;48.530;9.200;2024-03-23T17:24:54;5.60;;;2.90;;
417;SDS011;49;48.530;9.200;2024-03-23T17:27:20;7.70;;;2.90;;
417;SDS011;49;48.530;9.200;2024-03-23T17:29:46;7.30;;;2.50;;
417;SDS011;49;48.530;9.200;2024-03-23T17:32:12;8.33;;;2.77;;